Relevés horaires La Dôle (Suisse)


Relevés horaires à La Dôle - Samedi 12 Janv. 2008
Heure UTC1 Température [°C] Vent [km/h] Hum. [%] Pres.4 [hPa] Visi. [Km] Nébu. [octa] Préc.5 [mm] Cond.
2m. Res. Ros. Dir.2 Vit. Moy. Raf.3
23:00 -5.3 -11.7 -9.0 NE 18.5 25.9 35.2 75 850(0.4/3h) -- -- -- --
22:00 -6.8 -14.2 -7.4 N 22.2 25.9 35.2 95 850(0.6/3h) -- -- -- --
21:00 -6.5 -14.1 -7.1 NNO 24.1 25.9 38.9 95 850(0.9/3h) -- -- -- --
20:00 -6.1 -13.3 -6.8 N 22.2 24.1 35.2 95 850(1.1/3h) -- -- -- --
19:00 -6.1 -12.7 -6.4 N 18.5 24.1 35.2 98 850(1.4/3h) -- -- -- --
18:00 -5.9 -13.1 -6.0 N 22.2 46.3 61.1 99 850(1.5/3h) -- -- -- --
17:00 -5.9 -12.8 -6.0 NNO 20.4 25.9 38.9 99 850(1.8/3h) -- -- -- --
16:00 -5.9 -13.4 -5.9 NNO 24.1 31.5 44.4 100 850(1.9/3h) -- -- -- --
15:00 -5.7 -13.6 -5.8 NNO 27.8 46.3 61.1 99 850(1.9/3h) -- -- -- --
14:00 -5.7 -14.1 -5.9 NNO 31.5 42.6 61.1 98 850(1.2/3h) -- -- -- --
13:00 -5.6 -14.8 -5.7 NO 38.9 46.3 61.1 99 850(1.4/3h) -- -- -- --
12:00 -5.2 -14.8 -5.4 NO 44.4 53.7 72.2 98 850(1.3/3h) -- -- -- --
11:00 -4.9 -14 -5.2 NO 40.7 44.4 61.1 98 850(2.3/3h) -- -- -- --
10:00 -4.5 -13.5 -4.7 ONO 40.7 42.6 55.6 98 850(1.8/3h) -- -- -- --
09:00 -4.5 -12.9 -4.6 ONO 35.2 44.4 55.6 99 850(1.7/3h) -- -- -- --
08:00 -4.5 -13.8 -4.6 ONO 44.4 44.4 55.6 99 850(1.1/3h) -- -- -- --
07:00 -4.6 -13.6 -4.8 ONO 40.7 40.7 50.0 98 850(1.4/3h) -- -- -- --
06:00 -5.0 -13.8 -5.6 O 37.0 66.7 96.3 96 850(0.9/3h) -- -- -- --
05:00 -5.0 -12.9 -5.8 O 29.6 38.9 48.2 94 850(0.8/3h) -- -- -- --
04:00 -4.0 -12.3 -4.1 O 35.2 46.3 59.3 99 850(0.8/3h) -- -- -- --
03:00 -4.1 -12.2 -4.4 ONO 33.3 63.0 88.9 98 850(0.8/3h) -- -- -- --
02:00 -4.4 -12.8 -4.5 ONO 35.2 53.7 72.2 99 850(0.4/3h) -- -- -- --
01:00 -4.4 -13.8 -4.6 ONO 46.3 53.7 72.2 98 850(0.2/3h) -- -- -- --
00:00 -4.3 -14.3 -4.3 ONO 53.7 66.7 96.3 100 850(0.4/3h) -- -- -- --

1 Coordinated Universal Time. Actuellement il est 15:00 locale et 13:00 UTC.

2 Le vent souffle depuis la direction indiquée vers la direction oposée.

3 Les rafales max. sont disponible 40 min après l'heure du relevé.

4 Pour les stations d'altitude (plus de 600m) le géopotentiel du niveau le plus proche de la pression obligatoire est indiqué.

5 Les stations disposant d'un diffuseur peuvent indiquer "trace". Cela signifie que des précipitations ont touchés le sol mais que la quantité est inférieure à 0.1 mm.

Copyright

Les données affichées sur cette page sont la propriété exclusive de Météo Suisse.

Récapitulatif de la journée
Température [°C] Vent [km/h] Ensoleillement4 [h] Precipitations totale5 [mm] Pression [Hpa]
Min1 Max.2 Moy.3 Max. Min Max.
-5.0 -4.4 42.7 96.3 0 h 0 min 0 850.0 850.0

1 Température minimale relevée entre 18:00 UTC la veille et 18:00 UTC le jour donné.

2 Température maximale relevée entre 06:00 UTC le jour donné et 06:00 UTC le lendemain.

3 Vent moyen de la journée basé sur les relevés horaires.

4 Ensoleillement en heures relevé entre 06:00 UTC la veille et 06:00 UTC le jour donné.

5 Précipitations totales tombées entre 06:00 UTC la jour donné et 06:00 UTC le lendemain.

Graphiques horaires